Data for 02/26/2007

Time Sea-Level Adjusted Pressure Absolute Pressure Temperature Relative Humidity Dew Point   
(mb) (inHg) (mb) (inHg) (C) (F) (%) (C) (F)
00:05 1005 29.68 834 24.63 -4.1 24.7 77 -7.6 18.4
00:10 1005 29.68 834 24.63 -4.2 24.4 77 -7.6 18.3
00:15 1005 29.68 834 24.63 -4.1 24.6 77 -7.6 18.3
00:20 1005 29.68 834 24.63 -4.2 24.5 75 -7.9 17.8
00:25 1005 29.68 834 24.63 -4 24.7 75 -7.9 17.9
00:30 1005 29.68 834 24.63 -4.1 24.7 75 -7.8 18
00:35 1005 29.68 834 24.63 -4.2 24.4 77 -7.7 18.1
00:40 1005 29.68 834 24.63 -4.2 24.4 77 -7.7 18.1
00:45 1005 29.68 834 24.63 -4.2 24.4 76 -7.8 18
00:50 1005 29.68 834 24.63 -4.2 24.5 76 -7.8 18
00:55 1005 29.68 834 24.63 -4.1 24.6 76 -7.8 18
01:00 1005 29.68 834 24.63 -4 24.7 76 -7.7 18.2
01:05 1005 29.68 834 24.63 -3.9 25.1 75 -7.7 18.1
01:10 1005 29.68 834 24.63 -3.8 25.2 74 -7.8 17.9
01:15 1005 29.68 834 24.63 -3.6 25.5 73 -7.9 17.9
01:20 1005 29.68 834 24.63 -3.5 25.8 72 -7.8 18
01:25 1005 29.68 834 24.63 -3.6 25.6 73 -7.8 18
01:30 1005 29.68 834 24.63 -3.9 25.1 74 -7.9 17.9
01:35 1005 29.68 834 24.63 -4 24.9 74 -8 17.7
01:40 1005 29.68 834 24.63 -4.1 24.7 74 -8 17.6
01:45 1005 29.68 834 24.63 -4 24.7 74 -8 17.6
01:50 1005 29.68 834 24.63 -4.1 24.7 75 -7.9 17.8
01:55 1005 29.68 834 24.63 -4 24.7 75 -7.8 17.9
02:00 1005 29.68 834 24.63 -4 24.8 75 -7.8 17.9
02:05 1005 29.68 834 24.63 -4.1 24.7 75 -7.8 17.9
02:10 1005 29.68 834 24.63 -4 24.7 76 -7.7 18.1
02:15 1005 29.68 834 24.63 -4 24.9 75 -7.8 18
02:20 1005 29.68 834 24.63 -4 24.7 75 -7.8 18
02:25 1005 29.68 834 24.63 -4.2 24.4 76 -7.8 17.9
02:30 1005 29.68 834 24.63 -4.4 24.2 76 -8 17.7
02:35 1005 29.68 834 24.63 -4.3 24.2 75 -8 17.5
02:40 1005 29.68 834 24.63 -4.2 24.4 75 -8.1 17.5
02:45 1005 29.68 834 24.63 -4 24.7 74 -7.9 17.7
02:50 1005 29.68 834 24.63 -3.7 25.4 73 -7.9 17.8
02:55 1005 29.68 834 24.63 -3.4 25.8 72 -7.8 18
03:00 1005 29.68 834 24.63 -3.5 25.7 72 -7.8 18
03:05 1005 29.68 834 24.63 -3.4 25.9 72 -7.8 17.9
03:10 1005 29.68 834 24.63 -3.4 25.9 72 -7.8 17.9
03:15 1005 29.68 834 24.63 -3.5 25.7 73 -7.7 18.2
03:20 1005 29.68 834 24.63 -4 24.7 74 -8 17.5
03:25 1005 29.68 834 24.63 -3.7 25.3 72 -8 17.6
03:30 1005 29.68 834 24.63 -4.1 24.7 74 -8.1 17.5
03:35 1005 29.68 834 24.63 -4 24.8 73 -8.1 17.4
03:40 1005 29.68 834 24.63 -4.1 24.7 74 -8.1 17.4
03:45 1005 29.68 834 24.63 -4.1 24.7 73 -8.2 17.2
03:50 1005 29.68 834 24.63 -4.2 24.5 74 -8.2 17.3
03:55 1005 29.68 834 24.63 -4.1 24.6 74 -8.2 17.3
04:00 1005 29.68 834 24.63 -4.3 24.4 73 -8.3 17
04:05 1005 29.68 834 24.63 -4.6 23.8 75 -8.4 16.9
04:10 1005 29.68 834 24.63 -4.9 23.1 76 -8.5 16.7
04:15 1005 29.68 834 24.63 -4.7 23.5 75 -8.5 16.7
04:20 1005 29.68 834 24.63 -4.8 23.4 75 -8.5 16.7
04:25 1005 29.68 834 24.63 -4.9 23.1 76 -8.5 16.8
04:30 1005 29.68 834 24.63 -4.9 23.2 76 -8.4 16.8
04:35 1005 29.68 834 24.63 -5.1 22.9 77 -8.5 16.8
04:40 1005 29.68 834 24.63 -5.3 22.5 77 -8.7 16.4
04:45 1005 29.68 834 24.63 -5.5 22.1 78 -8.8 16.1
04:50 1005 29.68 834 24.63 -5.4 22.2 78 -8.8 16.2
04:55 1005 29.68 834 24.63 -5.4 22.3 77 -8.8 16.2
05:00 1005 29.68 834 24.63 -5.3 22.4 77 -8.7 16.3
05:05 1005 29.68 834 24.63 -5.3 22.4 77 -8.7 16.3
05:10 1005 29.68 834 24.63 -5.3 22.4 78 -8.6 16.5
05:15 1005 29.68 834 24.63 -5.2 22.7 77 -8.6 16.5
05:20 1005 29.68 834 24.63 -5.2 22.7 76 -8.8 16.1
05:25 1005 29.68 834 24.63 -5.4 22.4 76 -8.9 16
05:30 1005 29.68 834 24.63 -5.2 22.7 75 -8.9 16
05:35 1005 29.68 834 24.63 -5 23 75 -8.9 16
05:40 1005 29.68 834 24.63 -4.9 23.1 75 -8.8 16.2
05:45 1005 29.68 834 24.63 -4.9 23.2 74 -8.8 16.1
05:50 1005 29.68 834 24.63 -5.1 22.8 75 -8.8 16.1
05:55 1005 29.68 834 24.63 -5.5 22.1 76 -9.1 15.7
06:00 1005 29.68 834 24.63 -6 21.2 79 -9.1 15.6
06:05 1005 29.68 834 24.63 -6.4 20.5 81 -9.2 15.5
06:10 1005 29.68 834 24.63 -6.4 20.4 81 -9.2 15.4
06:15 1005 29.68 835 24.66 -6.6 20.1 81 -9.3 15.2
06:20 1005 29.68 835 24.66 -6.8 19.8 82 -9.3 15.2
06:25 1005 29.68 835 24.66 -6.1 20.9 79 -9.2 15.5
06:30 1005 29.68 835 24.66 -5.8 21.6 78 -9 15.9
06:35 1005 29.68 835 24.66 -5.9 21.4 79 -9.1 15.7
06:40 1005 29.68 835 24.66 -6.1 21.1 78 -9.3 15.2
06:45 1005 29.68 835 24.66 -6.1 21 80 -9.1 15.7
06:50 1005 29.68 835 24.66 -6 21.3 79 -9 15.8
06:55 1006 29.71 835 24.66 -6 21.3 79 -9 15.8
07:00 1006 29.71 835 24.66 -6.2 20.8 80 -9.2 15.4
07:05 1006 29.71 835 24.66 -6.4 20.5 79 -9.4 15
07:10 1006 29.71 835 24.66 -6.3 20.6 79 -9.4 15.2
07:15 1006 29.71 835 24.66 -6.5 20.3 80 -9.5 15
07:20 1006 29.71 835 24.66 -6.7 20 80 -9.6 14.7
07:25 1006 29.71 835 24.66 -6.7 19.9 81 -9.5 14.8
07:30 1006 29.71 835 24.66 -6.9 19.5 81 -9.7 14.5
07:35 1006 29.71 835 24.66 -6.9 19.6 80 -9.9 14.3
07:40 1006 29.71 835 24.66 -7.1 19.2 80 -10 14
07:45 1006 29.71 835 24.66 -7.2 19 81 -10 14
07:50 1006 29.71 835 24.66 -7.4 18.8 80 -10.2 13.6
07:55 1006 29.71 835 24.66 -7.4 18.7 81 -10.2 13.7
08:00 1006 29.71 835 24.66 -7.3 19 81 -10.1 13.9
08:05 1006 29.71 835 24.66 -6.9 19.6 80 -9.9 14.2
08:10 1006 29.71 835 24.66 -6.6 20.1 79 -9.7 14.5
08:15 1006 29.71 835 24.66 -6.3 20.6 78 -9.6 14.8
08:20 1006 29.71 835 24.66 -5.9 21.3 77 -9.4 15.1
08:25 1006 29.71 835 24.66 -5.7 21.7 77 -9.1 15.5
08:30 1006 29.71 835 24.66 -5.6 21.9 76 -9.1 15.6
08:35 1006 29.71 835 24.66 -5.5 22.1 77 -9 15.8
08:40 1006 29.71 835 24.66 -5.4 22.4 76 -8.9 16
08:45 1006 29.71 835 24.66 -5.3 22.5 76 -8.9 16
08:50 1006 29.71 835 24.66 -5.1 22.8 76 -8.8 16.2
08:55 1006 29.71 835 24.66 -5.1 22.8 75 -8.8 16.1
09:00 1006 29.71 836 24.69 -5.1 22.8 75 -8.9 16
09:05 1006 29.71 836 24.69 -4.9 23.2 74 -8.8 16.1
09:10 1006 29.71 836 24.69 -4.4 24 72 -8.7 16.3
09:15 1006 29.71 836 24.69 -3.8 25.1 70 -8.6 16.5
09:20 1006 29.71 836 24.69 -3.3 26 67 -8.5 16.6
09:25 1007 29.74 836 24.69 -3.1 26.3 67 -8.4 16.9
09:30 1007 29.74 836 24.69 -3.4 25.9 69 -8.3 17
09:35 1007 29.74 836 24.69 -3.6 25.5 69 -8.5 16.7
09:40 1007 29.74 836 24.69 -3.2 26.2 68 -8.3 17.1
09:45 1007 29.74 836 24.69 -2.7 27.2 65 -8.4 17
09:50 1007 29.74 836 24.69 -2.3 27.8 65 -8 17.7
09:55 1007 29.74 836 24.69 -2 28.4 66 -7.6 18.4
10:00 1007 29.74 836 24.69 -2 28.4 67 -7.4 18.7
10:05 1007 29.74 836 24.69 -1.6 29.1 65 -7.3 18.8
10:10 1007 29.74 836 24.69 -1.5 29.2 68 -6.8 19.8
10:15 1007 29.74 836 24.69 -1.6 29.2 68 -6.8 19.8
10:20 1007 29.74 836 24.69 -1.4 29.4 68 -6.5 20.3
10:25 1007 29.74 836 24.69 -1 30.3 66 -6.6 20.2
10:30 1007 29.74 836 24.69 -0.7 30.7 65 -6.5 20.3
10:35 1007 29.74 836 24.69 -0.3 31.5 64 -6.4 20.5
10:40 1007 29.74 836 24.69 0.5 33 60 -6.4 20.5
10:45 1007 29.74 836 24.69 0.9 33.5 60 -6 21.2
10:50 1007 29.74 836 24.69 0.9 33.6 59 -6.2 20.9
10:55 1007 29.74 836 24.69 0.7 33.3 62 -5.7 21.8
11:00 1007 29.74 836 24.69 -0.1 31.8 69 -5.2 22.7
11:05 1007 29.74 836 24.69 -0.5 31 72 -4.9 23.1
11:10 1007 29.74 836 24.69 -0.9 30.3 73 -5.1 22.8
11:15 1007 29.74 836 24.69 -1 30.2 75 -4.8 23.4
11:20 1007 29.74 836 24.69 -0.7 30.7 76 -4.4 24
11:25 1007 29.74 836 24.69 -0.3 31.5 74 -4.3 24.3
11:30 1007 29.74 836 24.69 0.4 32.6 72 -4.1 24.7
11:35 1007 29.74 836 24.69 1 33.8 69 -4.1 24.7
11:40 1007 29.74 836 24.69 1.5 34.6 68 -3.7 25.3
11:45 1007 29.74 836 24.69 1.2 34.1 72 -3.2 26.2
11:50 1007 29.74 836 24.69 0.6 33.1 73 -3.6 25.5
11:55 1007 29.74 836 24.69 0 32.1 77 -3.6 25.6
12:00 1007 29.74 837 24.72 -0.2 31.7 79 -3.4 25.9
12:05 1007 29.74 837 24.72 -0.1 31.9 77 -3.6 25.5
12:10 1007 29.74 837 24.72 -0.2 31.7 78 -3.6 25.5
12:15 1007 29.74 837 24.72 -0.8 30.6 82 -3.4 25.8
12:20 1007 29.74 836 24.69 -1.3 29.6 86 -3.4 25.8
12:25 1007 29.74 836 24.69 -1.1 29.9 84 -3.5 25.7
12:30 1007 29.74 836 24.69 -1.4 29.4 87 -3.3 26.1
12:35 1007 29.74 836 24.69 -1 30.2 84 -3.3 26
12:40 1007 29.74 836 24.69 -0.8 30.6 81 -3.6 25.5
12:45 1007 29.74 836 24.69 -1.2 29.8 85 -3.4 25.9
12:50 1007 29.74 836 24.69 -0.8 30.6 80 -3.8 25.2
12:55 1007 29.74 836 24.69 -0.3 31.4 78 -3.7 25.4
13:00 1007 29.74 836 24.69 -0.3 31.4 78 -3.8 25.2
13:05 1007 29.74 836 24.69 -0.3 31.4 75 -4.2 24.5
13:10 1007 29.74 836 24.69 0.3 32.6 73 -3.9 25
13:15 1007 29.74 836 24.69 -0.1 31.8 78 -3.5 25.7
13:20 1007 29.74 836 24.69 -0.1 31.9 74 -4.1 24.6
13:25 1007 29.74 836 24.69 -0.3 31.4 77 -3.8 25.1
13:30 1007 29.74 836 24.69 -0.1 31.7 73 -4.5 24
13:35 1007 29.74 836 24.69 -0.1 31.8 75 -4.1 24.6
13:40 1007 29.74 836 24.69 0.1 32.2 74 -3.9 24.9
13:45 1007 29.74 836 24.69 0.3 32.6 71 -4.4 24.1
13:50 1007 29.74 836 24.69 1.3 34.4 64 -4.8 23.3
13:55 1007 29.74 836 24.69 2.6 36.7 59 -4.6 23.8
14:00 1007 29.74 836 24.69 3.6 38.4 56 -4.3 24.3
14:05 1007 29.74 836 24.69 2.2 35.9 61 -4.6 23.7
14:10 1007 29.74 836 24.69 1.6 34.9 63 -4.7 23.5
14:15 1007 29.74 836 24.69 2.4 36.3 59 -4.8 23.3
14:20 1007 29.74 836 24.69 2.7 36.8 58 -4.7 23.5
14:25 1007 29.74 836 24.69 3 37.5 57 -4.6 23.8
14:30 1007 29.74 836 24.69 3 37.4 57 -4.7 23.5
14:35 1007 29.74 836 24.69 2.9 37.1 58 -4.5 23.9
14:40 1007 29.74 836 24.69 2.7 36.9 59 -4.4 24.1
14:45 1007 29.74 836 24.69 2.4 36.2 60 -4.5 23.9
14:50 1007 29.74 836 24.69 1.8 35.2 62 -4.8 23.4
14:55 1007 29.74 836 24.69 1.5 34.8 62 -4.9 23.2
15:00 1007 29.74 836 24.69 1.5 34.6 61 -5.3 22.5
15:05 1007 29.74 836 24.69 1.2 34.2 62 -5.3 22.5
15:10 1007 29.74 836 24.69 1.2 34.1 61 -5.6 22
15:15 1007 29.74 836 24.69 0.8 33.5 62 -5.7 21.7
15:20 1007 29.74 836 24.69 0.7 33.3 64 -5.4 22.3
15:25 1007 29.74 836 24.69 0.1 32.3 67 -5.3 22.5
15:30 1007 29.74 836 24.69 0 32 64 -5.9 21.4
15:35 1007 29.74 836 24.69 0.4 32.8 63 -5.8 21.5
15:40 1007 29.74 836 24.69 0.9 33.6 61 -5.8 21.6
15:45 1007 29.74 836 24.69 1.1 34 61 -5.6 21.9
15:50 1007 29.74 836 24.69 0.7 33.3 63 -5.5 22.1
15:55 1007 29.74 836 24.69 0.7 33.2 65 -5.2 22.6
16:00 1007 29.74 836 24.69 0.6 33 66 -5.1 22.9
16:05 1007 29.74 836 24.69 0.7 33.2 66 -4.9 23.2
16:10 1007 29.74 837 24.72 0.7 33.3 65 -5.1 22.8
16:15 1007 29.74 836 24.69 0.4 32.8 61 -6.2 20.8
16:20 1007 29.74 836 24.69 0.3 32.5 59 -6.9 19.7
16:25 1007 29.74 836 24.69 -0 31.9 56 -7.7 18.1
16:30 1007 29.74 836 24.69 0.1 32.1 56 -7.8 18
16:35 1007 29.74 836 24.69 -0.3 31.5 57 -7.8 18
16:40 1007 29.74 836 24.69 -0 31.9 56 -7.9 17.8
16:45 1007 29.74 836 24.69 0.4 32.7 53 -8 17.6
16:50 1007 29.74 836 24.69 0.8 33.4 54 -7.6 18.3
16:55 1007 29.74 836 24.69 1.2 34.1 52 -7.6 18.2
17:00 1007 29.74 836 24.69 1.4 34.4 51 -7.8 18
17:05 1007 29.74 836 24.69 1.2 34.1 52 -7.7 18.1
17:10 1007 29.74 836 24.69 1.6 34.9 48 -8.4 16.9
17:15 1007 29.74 837 24.72 1.6 34.8 50 -7.7 18.1
17:20 1007 29.74 837 24.72 1.3 34.4 50 -8.1 17.4
17:25 1007 29.74 837 24.72 1.4 34.5 50 -8 17.6
17:30 1007 29.74 837 24.72 1.9 35.5 47 -8.2 17.2
17:35 1007 29.74 837 24.72 2.3 36.1 42 -9.2 15.4
17:40 1007 29.74 837 24.72 1.7 35 46 -8.9 16
17:45 1007 29.74 837 24.72 1.2 34.1 50 -8.1 17.4
17:50 1007 29.74 837 24.72 0.5 32.9 54 -7.8 17.9
17:55 1007 29.74 837 24.72 0.3 32.5 56 -7.5 18.4
18:00 1008 29.77 837 24.72 0 32 59 -7.1 19.3
18:05 1008 29.77 837 24.72 -0.7 30.7 66 -6.3 20.7
18:10 1008 29.77 837 24.72 -1.6 29.1 75 -5.5 22
18:15 1008 29.77 837 24.72 -2 28.5 75 -5.8 21.5
18:20 1008 29.77 837 24.72 -1.7 29 71 -6.3 20.7
18:25 1007 29.74 837 24.72 -1.4 29.5 69 -6.3 20.7
18:30 1007 29.74 837 24.72 -1.3 29.8 61 -7.8 18
18:35 1007 29.74 837 24.72 -0.8 30.6 61 -7.3 18.9
18:40 1008 29.77 837 24.72 -0.7 30.7 64 -6.8 19.8
18:45 1008 29.77 837 24.72 -0.7 30.7 65 -6.4 20.4
18:50 1008 29.77 837 24.72 -0.7 30.7 65 -6.4 20.4
18:55 1008 29.77 837 24.72 -0.9 30.4 67 -6.2 20.8
19:00 1008 29.77 837 24.72 -1.3 29.6 67 -6.6 20.1
19:05 1008 29.77 837 24.72 -2.3 27.8 71 -6.8 19.7
19:10 1008 29.77 837 24.72 -2.6 27.3 70 -7.3 18.9
19:15 1008 29.77 837 24.72 -2.6 27.3 69 -7.6 18.3
19:20 1008 29.77 837 24.72 -2.6 27.3 68 -7.7 18.1
19:25 1008 29.77 837 24.72 -2.8 26.9 68 -7.9 17.7
19:30 1008 29.77 837 24.72 -3.1 26.5 66 -8.6 16.5
19:35 1008 29.77 837 24.72 -3.1 26.4 64 -8.9 15.9
19:40 1008 29.77 837 24.72 -3.2 26.2 65 -8.8 16.1
19:45 1008 29.77 837 24.72 -3.5 25.7 66 -9 15.8
19:50 1008 29.77 837 24.72 -3.6 25.5 66 -9.1 15.6
19:55 1008 29.77 837 24.72 -3.8 25.2 66 -9.2 15.4
20:00 1008 29.77 837 24.72 -3.7 25.4 66 -9.2 15.5
20:05 1008 29.77 837 24.72 -3.9 25 65 -9.5 14.9
20:10 1008 29.77 837 24.72 -3.9 24.9 64 -9.7 14.5
20:15 1008 29.77 837 24.72 -3.9 25 62 -10.2 13.7
20:20 1008 29.77 837 24.72 -3.7 25.4 59 -10.6 12.9
20:25 1008 29.77 837 24.72 -3.8 25.2 59 -10.6 12.9
20:30 1008 29.77 837 24.72 -4.3 24.2 61 -10.8 12.6
20:35 1008 29.77 837 24.72 -4.3 24.3 61 -10.7 12.8
20:40 1008 29.77 837 24.72 -4.2 24.4 57 -11.5 11.3
20:45 1008 29.77 837 24.72 -4.1 24.7 58 -11.1 12
20:50 1008 29.77 837 24.72 -4 24.8 57 -11.2 11.8
20:55 1007 29.74 837 24.72 -3.8 25.1 56 -11.3 11.6
21:00 1007 29.74 837 24.72 -3.3 26.1 48 -12.9 8.8
21:05 1007 29.74 837 24.72 -2 28.4 43 -13 8.6
21:10 1008 29.77 837 24.72 -1.8 28.7 43 -13 8.6
21:15 1008 29.77 837 24.72 -2.2 28 45 -12.6 9.3
21:20 1008 29.77 837 24.72 -2.7 27.1 48 -12.4 9.7
21:25 1008 29.77 837 24.72 -3 26.5 57 -10.4 13.3
21:30 1007 29.74 837 24.72 -4.2 24.5 57 -11.4 11.5
21:35 1007 29.74 837 24.72 -4.3 24.2 57 -11.6 11.1
21:40 1007 29.74 837 24.72 -4.5 23.9 58 -11.6 11.2
21:45 1007 29.74 836 24.69 -4.8 23.4 57 -11.9 10.5
21:50 1007 29.74 836 24.69 -4.6 23.7 56 -12.2 10.1
21:55 1007 29.74 836 24.69 -4.5 24 55 -12.3 9.9
22:00 1007 29.74 836 24.69 -4.4 24.1 54 -12.4 9.8
22:05 1007 29.74 836 24.69 -4.3 24.2 53 -12.5 9.5
22:10 1007 29.74 836 24.69 -4.6 23.7 54 -12.6 9.3
22:15 1007 29.74 836 24.69 -4.7 23.6 55 -12.5 9.5
22:20 1007 29.74 836 24.69 -4.8 23.3 56 -12.4 9.7
22:25 1007 29.74 836 24.69 -4.8 23.3 55 -12.5 9.4
22:30 1007 29.74 836 24.69 -4.9 23.2 54 -12.8 8.9
22:35 1007 29.74 836 24.69 -4.7 23.6 52 -13.1 8.4
22:40 1007 29.74 836 24.69 -4.6 23.6 54 -12.7 9.2
22:45 1007 29.74 836 24.69 -5 22.9 54 -12.9 8.8
22:50 1007 29.74 836 24.69 -5.3 22.5 55 -13 8.7
22:55 1007 29.74 836 24.69 -5.4 22.4 53 -13.4 7.8
23:00 1007 29.74 836 24.69 -5.1 22.8 53 -13.3 8
23:05 1007 29.74 836 24.69 -5 23 52 -13.4 7.9
23:10 1007 29.74 836 24.69 -5 23 53 -13.1 8.4
23:15 1006 29.71 836 24.69 -5.4 22.3 54 -13.2 8.2
23:20 1006 29.71 836 24.69 -5.3 22.4 55 -13.1 8.5
23:25 1006 29.71 836 24.69 -5.2 22.6 54 -13.3 8.1
23:30 1006 29.71 835 24.66 -5.2 22.6 55 -12.9 8.7
23:35 1006 29.71 835 24.66 -5.6 21.9 57 -12.9 8.8
23:40 1006 29.71 835 24.66 -5.8 21.5 58 -12.7 9.1
23:45 1006 29.71 835 24.66 -6 21.1 60 -12.6 9.3
23:50 1006 29.71 835 24.66 -6.3 20.6 61 -12.7 9.1
23:55 1006 29.71 835 24.66 -6.4 20.4 60 -13 8.6
24:00 1006 29.71 835 24.66 -6.3 20.7 58 -13.3 8.1